createdAt,value
2019-04-20T00:00:41.311Z,6.80
2019-04-20T00:03:05.774Z,7.20
2019-04-20T00:05:33.326Z,6.20
2019-04-20T00:08:07.690Z,6.30
2019-04-20T00:10:34.470Z,7.93
2019-04-20T00:13:13.705Z,7.60
2019-04-20T00:15:28.337Z,6.47
2019-04-20T00:17:58.745Z,6.43
2019-04-20T00:20:29.669Z,7.00
2019-04-20T00:22:59.754Z,6.33
2019-04-20T00:25:54.635Z,7.20
2019-04-20T00:28:30.226Z,7.17
2019-04-20T00:31:04.161Z,7.30
2019-04-20T00:33:27.336Z,7.67
2019-04-20T00:35:44.226Z,6.77
2019-04-20T00:38:11.996Z,8.80
2019-04-20T00:40:39.442Z,6.47
2019-04-20T00:43:06.778Z,6.30
2019-04-20T00:45:36.611Z,7.43
2019-04-20T00:48:13.628Z,6.50
2019-04-20T00:50:48.778Z,6.40
2019-04-20T00:53:10.308Z,8.17
2019-04-20T00:55:31.774Z,7.20
2019-04-20T00:58:10.385Z,7.00
2019-04-20T01:00:54.278Z,6.00
2019-04-20T01:03:19.767Z,8.57
2019-04-20T01:05:58.252Z,6.63
2019-04-20T01:08:27.487Z,7.10
2019-04-20T01:10:57.659Z,6.30
2019-04-20T01:13:26.658Z,6.47
2019-04-20T01:15:58.806Z,6.83
2019-04-20T01:18:22.890Z,7.13
2019-04-20T01:20:51.399Z,7.67
2019-04-20T01:23:23.747Z,8.07
2019-04-20T01:25:55.816Z,7.00
2019-04-20T01:28:35.583Z,7.90
2019-04-20T01:31:03.725Z,8.70
2019-04-20T01:33:31.825Z,7.67
2019-04-20T01:36:01.922Z,7.37
2019-04-20T01:38:30.759Z,8.67
2019-04-20T01:40:44.575Z,9.07
2019-04-20T01:43:12.160Z,9.27
2019-04-20T01:45:42.705Z,8.50
2019-04-20T01:48:13.093Z,7.00
2019-04-20T01:50:47.339Z,7.70
2019-04-20T01:53:16.415Z,7.13
2019-04-20T01:55:50.729Z,8.00
2019-04-20T01:58:31.232Z,8.13
2019-04-20T02:00:46.941Z,7.60
2019-04-20T02:03:38.440Z,7.27
2019-04-20T02:06:12.810Z,7.83
2019-04-20T02:08:37.832Z,7.67
2019-04-20T02:11:07.397Z,8.80
2019-04-20T02:13:43.659Z,7.90
2019-04-20T02:16:11.438Z,7.60
2019-04-20T02:18:44.235Z,7.57
2019-04-20T02:21:19.857Z,9.40
2019-04-20T02:23:43.312Z,7.60
2019-04-20T02:26:02.879Z,7.40
2019-04-20T02:28:57.153Z,9.17
2019-04-20T02:34:16.515Z,7.53
2019-04-20T02:37:07.609Z,7.50
2019-04-20T02:39:28.728Z,7.23
2019-04-20T02:42:34.198Z,7.03
2019-04-20T02:44:21.647Z,8.50
2019-04-20T02:46:49.266Z,7.30
2019-04-20T02:49:30.865Z,7.80
2019-04-20T02:51:46.691Z,7.60
2019-04-20T02:56:48.098Z,7.57
2019-04-20T02:59:42.257Z,8.00
2019-04-20T03:01:31.090Z,7.20
2019-04-20T03:03:48.118Z,8.47
2019-04-20T03:06:22.771Z,11.53
2019-04-20T03:09:04.090Z,7.10
2019-04-20T03:11:40.522Z,7.37
2019-04-20T03:13:58.037Z,6.93
2019-04-20T03:16:24.255Z,7.63
2019-04-20T03:18:54.627Z,6.60
2019-04-20T03:21:33.309Z,8.47
2019-04-20T03:24:09.628Z,7.73
2019-04-20T03:26:35.254Z,8.27
2019-04-20T03:29:18.869Z,8.97
2019-04-20T03:36:59.221Z,8.30
2019-04-20T03:39:23.275Z,8.87
2019-04-20T03:41:43.062Z,8.80
2019-04-20T03:44:10.556Z,8.43
2019-04-20T03:46:41.934Z,9.20
2019-04-20T03:49:20.054Z,9.77
2019-04-20T03:51:55.947Z,11.40
2019-04-20T03:54:21.340Z,11.93
2019-04-20T03:56:54.389Z,11.03
2019-04-20T03:59:27.562Z,10.00
2019-04-20T04:02:23.497Z,9.00
2019-04-20T04:04:34.134Z,9.87
2019-04-20T04:06:49.503Z,11.10
2019-04-20T04:09:23.615Z,9.83
2019-04-20T04:11:55.617Z,10.17
2019-04-20T04:14:09.489Z,10.60
2019-04-20T04:16:45.691Z,11.27
2019-04-20T04:19:16.164Z,10.23
2019-04-20T04:21:49.648Z,9.60
2019-04-20T04:24:17.070Z,11.17
2019-04-20T04:26:52.626Z,9.30
2019-04-20T04:29:25.357Z,9.77
2019-04-20T04:32:03.413Z,8.70
2019-04-20T04:34:18.765Z,7.93
2019-04-20T04:36:53.944Z,8.43
2019-04-20T04:39:26.374Z,9.97
2019-04-20T04:41:51.219Z,9.80
2019-04-20T04:44:14.752Z,8.73
2019-04-20T04:46:29.267Z,9.10
2019-04-20T04:49:05.394Z,10.80
2019-04-20T04:51:38.577Z,7.73
2019-04-20T04:54:03.676Z,9.07
2019-04-20T04:56:26.812Z,7.60
2019-04-20T04:58:53.882Z,9.07
2019-04-20T05:01:25.907Z,8.50
2019-04-20T05:04:14.683Z,7.67
2019-04-20T05:06:33.181Z,9.00
2019-04-20T05:08:54.860Z,9.03
2019-04-20T05:11:19.494Z,8.30
2019-04-20T05:13:54.716Z,7.47
2019-04-20T05:16:40.122Z,8.43
2019-04-20T05:19:09.453Z,11.97
2019-04-20T05:21:38.978Z,16.60
2019-04-20T05:24:10.003Z,19.60
2019-04-20T05:26:45.980Z,11.63
2019-04-20T05:29:02.672Z,8.67
2019-04-20T05:31:23.455Z,8.93
2019-04-20T05:34:15.735Z,8.03
2019-04-20T05:36:41.241Z,8.60
2019-04-20T05:39:14.418Z,11.33
2019-04-20T05:41:38.685Z,9.67
2019-04-20T05:44:06.419Z,10.17
2019-04-20T05:46:37.090Z,8.77
2019-04-20T05:49:10.035Z,7.87
2019-04-20T05:54:10.794Z,23.87
2019-04-20T05:56:40.046Z,15.23
2019-04-20T05:59:05.860Z,11.30
2019-04-20T06:01:37.961Z,12.50
2019-04-20T06:04:02.504Z,9.83
2019-04-20T06:06:32.833Z,9.77
2019-04-20T06:09:05.171Z,18.53
2019-04-20T06:11:31.988Z,23.37
2019-04-20T06:13:50.613Z,14.80
2019-04-20T06:16:40.887Z,11.93
2019-04-20T06:19:15.586Z,12.90
2019-04-20T06:21:52.513Z,12.93
2019-04-20T06:24:33.266Z,15.70
2019-04-20T06:27:03.255Z,16.00
2019-04-20T06:29:31.290Z,15.00
2019-04-20T06:32:05.072Z,22.43
2019-04-20T06:37:10.079Z,23.23
2019-04-20T06:42:15.121Z,21.53
2019-04-20T06:44:32.009Z,19.73
2019-04-20T06:47:03.039Z,18.17
2019-04-20T06:51:59.334Z,16.60
2019-04-20T06:54:45.193Z,11.20
2019-04-20T06:57:18.095Z,9.33
2019-04-20T06:59:45.867Z,11.60
2019-04-20T07:04:48.621Z,13.70
2019-04-20T07:07:14.148Z,17.13
2019-04-20T07:09:55.705Z,12.77
2019-04-20T07:12:12.618Z,10.57
2019-04-20T07:14:34.102Z,12.00
2019-04-20T07:17:26.925Z,9.47
2019-04-20T07:20:00.025Z,8.43
2019-04-20T07:25:21.383Z,8.63
2019-04-20T07:27:35.518Z,20.90
2019-04-20T07:30:03.941Z,19.47
2019-04-20T07:32:41.880Z,13.13
2019-04-20T07:35:03.524Z,8.33
2019-04-20T07:40:07.466Z,8.47
2019-04-20T07:42:37.489Z,8.70
2019-04-20T07:45:10.014Z,8.37
2019-04-20T07:47:34.491Z,35.63
2019-04-20T07:49:56.803Z,9.83
2019-04-20T07:52:08.140Z,10.40
2019-04-20T07:55:22.189Z,7.63
2019-04-20T07:57:24.740Z,7.63
2019-04-20T07:59:56.194Z,7.57
2019-04-20T08:02:34.620Z,15.73
2019-04-20T08:05:02.161Z,10.53
2019-04-20T08:07:17.457Z,8.70
2019-04-20T08:09:52.801Z,7.63
2019-04-20T08:12:51.759Z,8.07
2019-04-20T08:15:24.044Z,7.23
2019-04-20T08:18:06.522Z,6.93
2019-04-20T08:20:09.418Z,7.53
2019-04-20T08:22:42.099Z,7.30
2019-04-20T08:25:06.994Z,7.47
2019-04-20T08:27:23.734Z,6.80
2019-04-20T08:30:12.497Z,9.70
2019-04-20T08:32:54.229Z,9.25
2019-04-20T08:35:37.207Z,7.67
2019-04-20T08:38:14.954Z,9.15
2019-04-20T08:40:31.361Z,7.95
2019-04-20T08:43:12.882Z,11.22
2019-04-20T08:45:34.926Z,7.45
2019-04-20T08:48:05.590Z,7.65
2019-04-20T08:50:28.123Z,6.97
2019-04-20T08:53:08.892Z,7.83
2019-04-20T08:55:23.372Z,7.12
2019-04-20T08:57:35.586Z,8.33
2019-04-20T09:00:06.579Z,7.53
2019-04-20T09:02:34.662Z,7.45
2019-04-20T09:05:09.086Z,7.75
2019-04-20T09:07:40.842Z,7.95
2019-04-20T09:10:28.141Z,8.35
2019-04-20T09:12:45.034Z,8.88
2019-04-20T09:15:01.606Z,8.43
2019-04-20T09:17:45.248Z,8.40
2019-04-20T09:20:17.433Z,8.00
2019-04-20T09:23:02.177Z,7.53
2019-04-20T09:25:48.737Z,8.00
2019-04-20T09:27:57.805Z,7.75
2019-04-20T09:30:33.341Z,7.80
2019-04-20T09:33:14.608Z,8.25
2019-04-20T09:35:39.129Z,7.15
2019-04-20T09:38:09.814Z,7.22
2019-04-20T09:40:41.756Z,8.50
2019-04-20T09:42:58.079Z,7.70
2019-04-20T09:45:38.209Z,7.83
2019-04-20T09:48:06.912Z,7.25
2019-04-20T09:50:47.581Z,8.38
2019-04-20T09:53:19.755Z,7.33
2019-04-20T09:55:50.570Z,7.72
2019-04-20T09:58:17.043Z,7.28
2019-04-20T10:00:55.301Z,8.10
2019-04-20T10:03:04.571Z,8.03
2019-04-20T10:05:32.021Z,12.70
2019-04-20T10:08:03.355Z,8.80
2019-04-20T10:10:35.044Z,8.15
2019-04-20T10:12:58.329Z,8.75
2019-04-20T10:15:29.579Z,8.35
2019-04-20T10:17:56.074Z,8.18
2019-04-20T10:20:29.793Z,7.53
2019-04-20T10:22:54.348Z,7.83
2019-04-20T10:25:22.612Z,7.83
2019-04-20T10:27:49.976Z,8.48
2019-04-20T10:30:18.554Z,8.40
2019-04-20T10:32:50.463Z,8.40
2019-04-20T10:35:17.498Z,8.25
2019-04-20T10:37:47.205Z,8.15
2019-04-20T10:40:30.715Z,7.97
2019-04-20T10:42:44.131Z,9.45
2019-04-20T10:45:12.758Z,10.32
2019-04-20T10:47:41.074Z,8.43
2019-04-20T10:50:09.311Z,7.83
2019-04-20T10:52:38.027Z,8.53
2019-04-20T10:55:06.255Z,8.45
2019-04-20T10:57:33.673Z,8.10
2019-04-20T11:00:01.787Z,8.13
2019-04-20T11:02:29.890Z,7.72
2019-04-20T11:04:57.196Z,9.55
2019-04-20T11:07:24.514Z,8.33
2019-04-20T11:10:04.408Z,8.28
2019-04-20T11:12:22.133Z,7.97
2019-04-20T11:14:50.215Z,8.70
2019-04-20T11:17:18.224Z,8.50
2019-04-20T11:19:45.504Z,8.90
2019-04-20T11:22:12.842Z,8.13
2019-04-20T11:24:40.707Z,8.30
2019-04-20T11:27:08.381Z,8.53
2019-04-20T11:29:36.040Z,8.43
2019-04-20T11:32:05.170Z,8.28
2019-04-20T11:34:35.375Z,8.43
2019-04-20T11:37:03.290Z,7.83
2019-04-20T11:39:30.848Z,8.68
2019-04-20T11:41:59.504Z,8.95
2019-04-20T11:44:30.315Z,7.22
2019-04-20T11:46:56.758Z,7.78
2019-04-20T11:49:24.110Z,7.78
2019-04-20T11:51:55.288Z,7.70
2019-04-20T11:54:24.234Z,8.33
2019-04-20T11:56:53.291Z,8.18
2019-04-20T11:59:23.484Z,7.62
2019-04-20T12:02:01.994Z,7.97
2019-04-20T12:04:40.703Z,8.40
2019-04-20T12:06:56.980Z,7.90
2019-04-20T12:09:25.924Z,7.92
2019-04-20T12:12:06.903Z,8.90
2019-04-20T12:14:23.001Z,7.83
2019-04-20T12:16:50.333Z,8.00
2019-04-20T12:19:18.666Z,7.03
2019-04-20T12:21:47.507Z,7.10
2019-04-20T12:24:16.261Z,6.67
2019-04-20T12:26:44.797Z,7.10
2019-04-20T12:29:14.004Z,7.12
2019-04-20T12:31:45.886Z,6.17
2019-04-20T12:34:10.824Z,5.83
2019-04-20T12:36:39.498Z,5.97
2019-04-20T12:39:09.010Z,7.22
2019-04-20T12:41:43.393Z,6.80
2019-04-20T12:44:05.849Z,6.75
2019-04-20T12:46:34.064Z,5.85
2019-04-20T12:49:01.837Z,7.53
2019-04-20T12:51:33.757Z,8.05
2019-04-20T12:53:58.465Z,6.15
2019-04-20T12:56:26.594Z,6.40
2019-04-20T12:58:53.974Z,7.87
2019-04-20T13:01:22.848Z,6.15
2019-04-20T13:03:50.715Z,6.65
2019-04-20T13:06:19.483Z,6.00
2019-04-20T13:08:51.846Z,5.70
2019-04-20T13:11:18.413Z,5.95
2019-04-20T13:13:50.338Z,6.12
2019-04-20T13:16:20.598Z,6.47
2019-04-20T13:18:53.060Z,6.35
2019-04-20T13:21:21.074Z,7.97
2019-04-20T13:23:49.038Z,7.70
2019-04-20T13:26:17.515Z,6.15
2019-04-20T13:28:46.453Z,7.60
2019-04-20T13:31:14.170Z,7.60
2019-04-20T13:33:43.257Z,6.55
2019-04-20T13:36:12.383Z,5.67
2019-04-20T13:38:40.401Z,5.53
2019-04-20T13:41:09.401Z,5.97
2019-04-20T13:43:37.634Z,5.65
2019-04-20T13:46:05.086Z,7.00
2019-04-20T13:48:33.042Z,6.12
2019-04-20T13:51:02.226Z,5.83
2019-04-20T13:53:30.157Z,6.20
2019-04-20T13:55:58.212Z,6.67
2019-04-20T13:58:43.595Z,6.05
2019-04-20T14:01:13.036Z,6.62
2019-04-20T14:03:40.814Z,5.97
2019-04-20T14:06:09.000Z,5.42
2019-04-20T14:08:37.443Z,4.87
2019-04-20T14:11:05.235Z,5.30
2019-04-20T14:13:40.357Z,5.95
2019-04-20T14:16:03.057Z,5.53
2019-04-20T14:18:31.158Z,5.42
2019-04-20T14:20:58.827Z,6.03
2019-04-20T14:23:27.062Z,5.67
2019-04-20T14:25:56.640Z,5.20
2019-04-20T14:28:24.909Z,6.05
2019-04-20T14:30:53.808Z,5.55
2019-04-20T14:33:24.039Z,6.05
2019-04-20T14:35:52.716Z,6.58
2019-04-20T14:38:20.247Z,6.35
2019-04-20T14:40:48.388Z,7.15
2019-04-20T14:43:17.124Z,5.70
2019-04-20T14:45:45.023Z,7.08
2019-04-20T14:48:12.569Z,5.65
2019-04-20T14:50:41.287Z,8.23
2019-04-20T14:53:09.507Z,6.80
2019-04-20T14:55:37.865Z,5.87
2019-04-20T14:58:08.881Z,5.72
2019-04-20T15:00:39.603Z,6.70
2019-04-20T15:03:28.205Z,6.20
2019-04-20T15:05:57.715Z,6.20
2019-04-20T15:08:25.290Z,6.08
2019-04-20T15:10:52.808Z,6.40
2019-04-20T15:13:20.458Z,7.22
2019-04-20T15:15:48.529Z,5.65
2019-04-20T15:18:17.755Z,7.50
2019-04-20T15:20:47.776Z,5.50
2019-04-20T15:23:17.472Z,5.65
2019-04-20T15:25:46.468Z,5.30
2019-04-20T15:28:14.577Z,5.62
2019-04-20T15:30:42.685Z,6.20
2019-04-20T15:33:09.994Z,4.85
2019-04-20T15:35:37.889Z,6.47
2019-04-20T15:38:05.282Z,5.10
2019-04-20T15:40:33.052Z,5.45
2019-04-20T15:43:08.337Z,6.90
2019-04-20T15:45:31.392Z,8.93
2019-04-20T15:47:59.547Z,5.85
2019-04-20T15:50:27.680Z,6.03
2019-04-20T15:52:57.337Z,5.12
2019-04-20T15:55:30.083Z,5.85
2019-04-20T15:57:55.423Z,6.45
2019-04-20T16:00:24.483Z,6.12
2019-04-20T16:02:53.775Z,6.60
2019-04-20T16:05:31.569Z,5.70
2019-04-20T16:08:03.960Z,7.75
2019-04-20T16:10:30.821Z,6.65
2019-04-20T16:13:12.032Z,6.50
2019-04-20T16:15:27.837Z,6.95
2019-04-20T16:17:55.151Z,6.33
2019-04-20T16:20:25.001Z,5.62
2019-04-20T16:22:52.266Z,6.40
2019-04-20T16:25:23.365Z,6.28
2019-04-20T16:27:51.836Z,6.72
2019-04-20T16:30:19.920Z,7.55
2019-04-20T16:32:48.191Z,6.22
2019-04-20T16:35:16.313Z,5.87
2019-04-20T16:37:44.385Z,6.28
2019-04-20T16:40:13.627Z,7.35
2019-04-20T16:42:42.741Z,7.10
2019-04-20T16:45:11.598Z,5.83
2019-04-20T16:47:39.977Z,8.13
2019-04-20T16:50:08.755Z,5.90
2019-04-20T16:52:36.820Z,7.53
2019-04-20T16:55:06.498Z,6.72
2019-04-20T16:57:34.231Z,6.60
2019-04-20T17:00:03.101Z,6.30
2019-04-20T17:02:31.866Z,8.60
2019-04-20T17:04:59.363Z,7.25
2019-04-20T17:07:29.045Z,10.25
2019-04-20T17:09:58.001Z,7.70
2019-04-20T17:12:25.786Z,7.80
2019-04-20T17:14:53.677Z,7.00
2019-04-20T17:17:21.968Z,7.37
2019-04-20T17:19:49.421Z,7.30
2019-04-20T17:22:17.255Z,7.93
2019-04-20T17:24:45.348Z,7.17
2019-04-20T17:27:27.033Z,7.70
2019-04-20T17:30:03.086Z,6.72
2019-04-20T17:32:33.698Z,9.55
2019-04-20T17:35:15.825Z,7.78
2019-04-20T17:37:37.684Z,11.03
2019-04-20T17:40:22.109Z,9.75
2019-04-20T17:42:41.612Z,7.58
2019-04-20T17:45:06.654Z,7.97
2019-04-20T17:47:47.162Z,7.95
2019-04-20T17:50:18.903Z,10.10
2019-04-20T17:52:46.162Z,7.25
2019-04-20T17:55:22.236Z,9.77
2019-04-20T17:57:39.328Z,8.97
2019-04-20T18:00:14.811Z,8.38
2019-04-20T18:03:00.632Z,6.60
2019-04-20T18:05:44.664Z,7.73
2019-04-20T18:08:06.241Z,7.83
2019-04-20T18:10:30.324Z,10.67
2019-04-20T18:12:49.782Z,10.73
2019-04-20T18:15:31.532Z,8.80
2019-04-20T18:18:19.001Z,9.43
2019-04-20T18:20:30.786Z,9.13
2019-04-20T18:22:58.842Z,6.77
2019-04-20T18:25:54.850Z,9.53
2019-04-20T18:28:11.150Z,11.10
2019-04-20T18:30:50.497Z,8.57
2019-04-20T18:33:13.580Z,9.00
2019-04-20T18:35:45.372Z,7.60
2019-04-20T18:38:14.871Z,10.13
2019-04-20T18:40:49.327Z,10.43
2019-04-20T18:43:14.995Z,7.37
2019-04-20T18:45:58.204Z,9.07
2019-04-20T18:48:33.970Z,8.07
2019-04-20T18:50:40.786Z,8.83
2019-04-20T18:53:05.944Z,7.43
2019-04-20T18:55:46.314Z,7.57
2019-04-20T18:58:04.784Z,9.03
2019-04-20T19:00:38.870Z,8.63
2019-04-20T19:03:09.733Z,10.07
2019-04-20T19:05:31.674Z,8.53
2019-04-20T19:08:04.680Z,7.33
2019-04-20T19:10:33.079Z,10.10
2019-04-20T19:13:05.909Z,11.37
2019-04-20T19:16:04.323Z,8.30
2019-04-20T19:18:45.264Z,7.57
2019-04-20T19:21:03.437Z,8.80
2019-04-20T19:23:33.810Z,8.47
2019-04-20T19:26:02.433Z,10.17
2019-04-20T19:28:36.809Z,9.33
2019-04-20T19:31:11.430Z,7.83
2019-04-20T19:33:37.782Z,13.10
2019-04-20T19:36:12.149Z,10.27
2019-04-20T19:38:41.768Z,9.43
2019-04-20T19:41:05.861Z,8.17
2019-04-20T19:43:31.555Z,10.77
2019-04-20T19:46:37.907Z,8.43
2019-04-20T19:48:39.122Z,7.10
2019-04-20T19:51:19.205Z,7.73
2019-04-20T19:53:45.379Z,11.90
2019-04-20T19:56:03.494Z,8.43
2019-04-20T19:58:30.321Z,8.37
2019-04-20T20:00:52.100Z,7.70
2019-04-20T20:03:19.810Z,8.93
2019-04-20T20:05:49.921Z,7.93
2019-04-20T20:08:21.544Z,9.33
2019-04-20T20:10:46.191Z,8.27
2019-04-20T20:13:14.961Z,8.13
2019-04-20T20:15:43.686Z,13.17
2019-04-20T20:18:30.648Z,7.90
2019-04-20T20:20:59.593Z,8.57
2019-04-20T20:23:11.966Z,7.97
2019-04-20T20:25:44.868Z,9.63
2019-04-20T20:28:21.535Z,8.70
2019-04-20T20:30:53.817Z,9.37
2019-04-20T20:33:24.159Z,8.60
2019-04-20T20:35:50.147Z,10.67
2019-04-20T20:38:16.829Z,9.47
2019-04-20T20:40:43.508Z,9.87
2019-04-20T20:43:14.794Z,11.37
2019-04-20T20:45:39.679Z,9.40
2019-04-20T20:48:21.003Z,8.57
2019-04-20T20:50:48.875Z,9.20
2019-04-20T20:53:12.491Z,9.27
2019-04-20T20:55:38.249Z,9.50
2019-04-20T20:58:08.475Z,10.80
2019-04-20T21:00:39.859Z,10.57
2019-04-20T21:03:02.561Z,11.17
2019-04-20T21:05:27.383Z,13.03
2019-04-20T21:07:55.447Z,15.57
2019-04-20T21:10:31.000Z,16.50
2019-04-20T21:12:57.469Z,15.17
2019-04-20T21:15:24.269Z,17.63
2019-04-20T21:18:18.964Z,17.83
2019-04-20T21:20:45.391Z,17.30
2019-04-20T21:23:07.215Z,18.10
2019-04-20T21:25:33.617Z,19.57
2019-04-20T21:27:57.032Z,22.80
2019-04-20T21:30:32.999Z,17.97
2019-04-20T21:32:57.229Z,17.80
2019-04-20T21:35:23.859Z,15.83
2019-04-20T21:37:58.844Z,14.10
2019-04-20T21:40:27.958Z,14.93
2019-04-20T21:42:57.216Z,13.90
2019-04-20T21:45:24.877Z,13.20
2019-04-20T21:47:48.410Z,13.03
2019-04-20T21:50:30.027Z,17.77
2019-04-20T21:52:53.310Z,14.87
2019-04-20T21:55:16.497Z,15.70
2019-04-20T21:57:51.574Z,14.47
2019-04-20T22:00:44.593Z,15.00
2019-04-20T22:03:11.343Z,14.80
2019-04-20T22:05:38.144Z,26.37
2019-04-20T22:08:09.590Z,19.07
2019-04-20T22:10:34.970Z,18.37
2019-04-20T22:13:03.188Z,16.17
2019-04-20T22:15:35.023Z,17.67
2019-04-20T22:18:06.815Z,19.83
2019-04-20T22:20:37.239Z,20.40
2019-04-20T22:23:15.133Z,19.87
2019-04-20T22:25:49.023Z,20.47
2019-04-20T22:28:00.639Z,17.57
2019-04-20T22:30:28.493Z,20.13
2019-04-20T22:32:59.474Z,18.67
2019-04-20T22:35:26.754Z,16.60
2019-04-20T22:38:08.926Z,16.83
2019-04-20T22:40:35.228Z,16.50
2019-04-20T22:43:04.256Z,17.37
2019-04-20T22:45:34.009Z,16.83
2019-04-20T22:48:08.228Z,18.33
2019-04-20T22:50:41.389Z,18.60
2019-04-20T22:53:21.672Z,17.20
2019-04-20T22:55:57.436Z,17.77
2019-04-20T22:58:04.634Z,17.73
2019-04-20T23:00:37.324Z,19.07
2019-04-20T23:02:56.638Z,18.47
2019-04-20T23:05:24.701Z,17.80
2019-04-20T23:07:52.933Z,18.63
2019-04-20T23:10:29.337Z,20.33
2019-04-20T23:12:54.215Z,17.87
2019-04-20T23:15:20.524Z,18.27
2019-04-20T23:17:52.092Z,17.80
2019-04-20T23:20:26.391Z,20.13
2019-04-20T23:22:51.151Z,17.17
2019-04-20T23:25:17.552Z,19.33
2019-04-20T23:27:45.798Z,16.97
2019-04-20T23:30:23.157Z,16.30
2019-04-20T23:32:44.132Z,18.77
2019-04-20T23:35:18.120Z,17.97
2019-04-20T23:37:42.294Z,17.07
2019-04-20T23:40:13.203Z,19.83
2019-04-20T23:42:47.866Z,17.67
2019-04-20T23:45:16.983Z,18.93
2019-04-20T23:47:53.228Z,19.87
2019-04-20T23:50:38.189Z,19.00
2019-04-20T23:53:06.605Z,17.90
2019-04-20T23:55:17.000Z,15.67
2019-04-20T23:57:46.018Z,17.93
